GCFV/FUE METAR and TAF weather

Enter ICAO airport designator
Station Type Date Time Source
GCFV METAR 2020/02/19 11:30 UTC NOAA

GCFV 191130Z 04017KT 9999 BKN023 19/14 Q1024


Station Type Date Time Source
GCFV Decoded METAR 2020/02/19 11:30 UTC NOAA

Fuerteventura / Aeropuerto, Spain (GCFV) 28-27N 013-52W 30M
Feb 19, 2020 - 06:30 AM EST / 2020.02.19 1130 UTC
Wind: from the NE (040 degrees) at 20 MPH (17 KT):0
Visibility: greater than 7 mile(s):0
Sky conditions: mostly cloudy
Temperature: 66 F (19 C)
Dew Point: 57 F (14 C)
Relative Humidity: 72%
Pressure (altimeter): 30.24 in. Hg (1024 hPa)
ob: GCFV 191130Z 04017KT 9999 BKN023 19/14 Q1024
cycle: 11

Station Type Date Time Source
GCFV TAF 2020/02/19 09:27 UTC NOAA

TAF TAF GCFV 190800Z 1909/2009 04017KT 9999 SCT020 TX21/1914Z TN16/2006Z
BECMG 1921/1924 34010KT

Example: see airport list